sensor_id;sensor_type;location;lat;lon;timestamp;temperature;humidity
34574;DHT22;20809;49.594;8.734;2022-08-20T00:02:53;19.50;99.90
34574;DHT22;20809;49.594;8.734;2022-08-20T00:05:59;19.50;99.90
34574;DHT22;20809;49.594;8.734;2022-08-20T00:09:00;19.40;99.90
34574;DHT22;20809;49.594;8.734;2022-08-20T00:12:00;19.40;99.90
34574;DHT22;20809;49.594;8.734;2022-08-20T00:15:03;19.30;99.90
34574;DHT22;20809;49.594;8.734;2022-08-20T00:18:05;19.30;99.90
34574;DHT22;20809;49.594;8.734;2022-08-20T00:21:10;19.20;99.90
34574;DHT22;20809;49.594;8.734;2022-08-20T00:24:11;19.10;99.90
34574;DHT22;20809;49.594;8.734;2022-08-20T00:27:11;19.00;99.90
34574;DHT22;20809;49.594;8.734;2022-08-20T00:30:13;19.00;99.90
34574;DHT22;20809;49.594;8.734;2022-08-20T00:33:18;18.90;99.90
34574;DHT22;20809;49.594;8.734;2022-08-20T00:36:20;18.90;99.90
34574;DHT22;20809;49.594;8.734;2022-08-20T00:39:21;18.90;99.90
34574;DHT22;20809;49.594;8.734;2022-08-20T00:42:22;18.80;99.90
34574;DHT22;20809;49.594;8.734;2022-08-20T00:45:24;18.90;99.90
34574;DHT22;20809;49.594;8.734;2022-08-20T00:48:29;18.80;99.90
34574;DHT22;20809;49.594;8.734;2022-08-20T00:54:49;18.80;99.90
34574;DHT22;20809;49.594;8.734;2022-08-20T00:59:11;18.60;99.90
34574;DHT22;20809;49.594;8.734;2022-08-20T01:02:15;18.60;99.90
34574;DHT22;20809;49.594;8.734;2022-08-20T01:05:17;18.60;99.90
34574;DHT22;20809;49.594;8.734;2022-08-20T01:08:20;18.60;99.90
34574;DHT22;20809;49.594;8.734;2022-08-20T01:11:22;18.50;99.90
34574;DHT22;20809;49.594;8.734;2022-08-20T01:14:32;18.50;99.90
34574;DHT22;20809;49.594;8.734;2022-08-20T01:17:35;18.40;99.90
34574;DHT22;20809;49.594;8.734;2022-08-20T01:24:34;18.50;99.90
34574;DHT22;20809;49.594;8.734;2022-08-20T01:27:28;18.50;99.90
34574;DHT22;20809;49.594;8.734;2022-08-20T01:30:31;18.60;99.90
34574;DHT22;20809;49.594;8.734;2022-08-20T01:33:32;18.60;99.90
34574;DHT22;20809;49.594;8.734;2022-08-20T01:36:44;18.70;99.90
34574;DHT22;20809;49.594;8.734;2022-08-20T01:39:45;18.70;99.90
34574;DHT22;20809;49.594;8.734;2022-08-20T01:42:47;18.80;99.90
34574;DHT22;20809;49.594;8.734;2022-08-20T01:45:50;18.80;99.90
34574;DHT22;20809;49.594;8.734;2022-08-20T01:48:53;18.90;99.90
34574;DHT22;20809;49.594;8.734;2022-08-20T01:51:58;18.90;99.90
34574;DHT22;20809;49.594;8.734;2022-08-20T01:54:59;18.90;99.90
34574;DHT22;20809;49.594;8.734;2022-08-20T01:58:00;18.90;99.90
34574;DHT22;20809;49.594;8.734;2022-08-20T02:01:01;18.80;99.90
34574;DHT22;20809;49.594;8.734;2022-08-20T02:04:05;18.80;99.90
34574;DHT22;20809;49.594;8.734;2022-08-20T02:07:07;18.80;99.90
34574;DHT22;20809;49.594;8.734;2022-08-20T02:10:14;18.80;99.90
34574;DHT22;20809;49.594;8.734;2022-08-20T02:13:15;18.80;99.90
34574;DHT22;20809;49.594;8.734;2022-08-20T02:16:17;18.70;99.90
34574;DHT22;20809;49.594;8.734;2022-08-20T02:19:42;18.70;99.90
34574;DHT22;20809;49.594;8.734;2022-08-20T02:22:53;18.80;99.90
34574;DHT22;20809;49.594;8.734;2022-08-20T02:25:54;18.80;99.90
34574;DHT22;20809;49.594;8.734;2022-08-20T02:28:56;18.80;99.90
34574;DHT22;20809;49.594;8.734;2022-08-20T02:31:56;18.90;99.90
34574;DHT22;20809;49.594;8.734;2022-08-20T02:34:57;18.90;99.90
34574;DHT22;20809;49.594;8.734;2022-08-20T02:37:58;18.90;99.90
34574;DHT22;20809;49.594;8.734;2022-08-20T02:40:59;18.90;99.90
34574;DHT22;20809;49.594;8.734;2022-08-20T02:44:00;19.00;99.90
34574;DHT22;20809;49.594;8.734;2022-08-20T02:47:01;19.00;99.90
34574;DHT22;20809;49.594;8.734;2022-08-20T02:50:02;19.10;99.90
34574;DHT22;20809;49.594;8.734;2022-08-20T02:53:03;19.10;99.90
34574;DHT22;20809;49.594;8.734;2022-08-20T02:56:05;19.20;99.90
34574;DHT22;20809;49.594;8.734;2022-08-20T02:59:05;19.20;99.90
34574;DHT22;20809;49.594;8.734;2022-08-20T03:02:07;19.30;99.90
34574;DHT22;20809;49.594;8.734;2022-08-20T03:05:08;19.30;99.90
34574;DHT22;20809;49.594;8.734;2022-08-20T03:08:11;19.30;99.90
34574;DHT22;20809;49.594;8.734;2022-08-20T03:11:12;19.30;99.90
34574;DHT22;20809;49.594;8.734;2022-08-20T03:14:13;19.30;99.90
34574;DHT22;20809;49.594;8.734;2022-08-20T03:17:13;19.30;99.90
34574;DHT22;20809;49.594;8.734;2022-08-20T03:20:14;19.30;99.90
34574;DHT22;20809;49.594;8.734;2022-08-20T03:23:16;19.30;99.90
34574;DHT22;20809;49.594;8.734;2022-08-20T03:26:17;19.30;99.90
34574;DHT22;20809;49.594;8.734;2022-08-20T03:29:18;19.30;99.90
34574;DHT22;20809;49.594;8.734;2022-08-20T03:32:18;19.30;99.90
34574;DHT22;20809;49.594;8.734;2022-08-20T03:35:22;19.30;99.90
34574;DHT22;20809;49.594;8.734;2022-08-20T03:38:23;19.30;99.90
34574;DHT22;20809;49.594;8.734;2022-08-20T03:41:24;19.30;99.90
34574;DHT22;20809;49.594;8.734;2022-08-20T03:44:25;19.30;99.90
34574;DHT22;20809;49.594;8.734;2022-08-20T03:47:26;19.30;99.90
34574;DHT22;20809;49.594;8.734;2022-08-20T03:50:30;19.30;99.90
34574;DHT22;20809;49.594;8.734;2022-08-20T03:53:31;19.30;99.90
34574;DHT22;20809;49.594;8.734;2022-08-20T03:56:32;19.30;99.90
34574;DHT22;20809;49.594;8.734;2022-08-20T03:59:33;19.30;99.90
34574;DHT22;20809;49.594;8.734;2022-08-20T04:02:33;19.30;99.90
34574;DHT22;20809;49.594;8.734;2022-08-20T04:05:36;19.30;99.90
34574;DHT22;20809;49.594;8.734;2022-08-20T04:08:39;19.40;99.90
34574;DHT22;20809;49.594;8.734;2022-08-20T04:11:41;19.40;99.90
34574;DHT22;20809;49.594;8.734;2022-08-20T04:14:42;19.40;99.90
34574;DHT22;20809;49.594;8.734;2022-08-20T04:17:46;19.40;99.90
34574;DHT22;20809;49.594;8.734;2022-08-20T04:20:47;19.50;99.90
34574;DHT22;20809;49.594;8.734;2022-08-20T04:23:48;19.50;99.90
34574;DHT22;20809;49.594;8.734;2022-08-20T04:26:48;19.50;99.90
34574;DHT22;20809;49.594;8.734;2022-08-20T04:29:49;19.60;99.90
34574;DHT22;20809;49.594;8.734;2022-08-20T04:32:50;19.60;99.90
34574;DHT22;20809;49.594;8.734;2022-08-20T04:35:53;19.60;99.90
34574;DHT22;20809;49.594;8.734;2022-08-20T04:38:54;19.60;99.90
34574;DHT22;20809;49.594;8.734;2022-08-20T04:41:55;19.60;99.90
34574;DHT22;20809;49.594;8.734;2022-08-20T04:44:55;19.50;99.90
34574;DHT22;20809;49.594;8.734;2022-08-20T04:47:56;19.50;99.90
34574;DHT22;20809;49.594;8.734;2022-08-20T04:50:58;19.50;99.90
34574;DHT22;20809;49.594;8.734;2022-08-20T04:53:59;19.50;99.90
34574;DHT22;20809;49.594;8.734;2022-08-20T04:57:01;19.60;99.90
34574;DHT22;20809;49.594;8.734;2022-08-20T05:00:06;19.60;99.90
34574;DHT22;20809;49.594;8.734;2022-08-20T05:03:07;19.60;99.90
34574;DHT22;20809;49.594;8.734;2022-08-20T05:06:09;19.60;99.90
34574;DHT22;20809;49.594;8.734;2022-08-20T05:09:10;19.50;99.90
34574;DHT22;20809;49.594;8.734;2022-08-20T05:12:11;19.50;99.90
34574;DHT22;20809;49.594;8.734;2022-08-20T05:15:14;19.60;99.90
34574;DHT22;20809;49.594;8.734;2022-08-20T05:18:17;19.70;99.90
34574;DHT22;20809;49.594;8.734;2022-08-20T05:21:19;19.80;99.90
34574;DHT22;20809;49.594;8.734;2022-08-20T05:24:20;19.90;99.90
34574;DHT22;20809;49.594;8.734;2022-08-20T05:27:21;20.10;99.90
34574;DHT22;20809;49.594;8.734;2022-08-20T05:30:28;20.10;99.90
34574;DHT22;20809;49.594;8.734;2022-08-20T05:33:32;20.30;99.90
34574;DHT22;20809;49.594;8.734;2022-08-20T05:36:34;20.40;99.90
34574;DHT22;20809;49.594;8.734;2022-08-20T05:39:35;20.50;99.90
34574;DHT22;20809;49.594;8.734;2022-08-20T05:42:35;20.70;99.90
34574;DHT22;20809;49.594;8.734;2022-08-20T05:45:37;20.70;99.90
34574;DHT22;20809;49.594;8.734;2022-08-20T05:48:38;20.80;99.90
34574;DHT22;20809;49.594;8.734;2022-08-20T05:51:39;20.90;99.90
34574;DHT22;20809;49.594;8.734;2022-08-20T05:54:40;20.90;99.90
34574;DHT22;20809;49.594;8.734;2022-08-20T05:57:41;21.00;99.90
34574;DHT22;20809;49.594;8.734;2022-08-20T06:00:42;21.00;99.90
34574;DHT22;20809;49.594;8.734;2022-08-20T06:03:42;21.10;99.90
34574;DHT22;20809;49.594;8.734;2022-08-20T06:07:04;21.20;99.90
34574;DHT22;20809;49.594;8.734;2022-08-20T06:10:06;21.40;99.90
34574;DHT22;20809;49.594;8.734;2022-08-20T06:13:09;21.50;99.90
34574;DHT22;20809;49.594;8.734;2022-08-20T06:16:09;21.60;99.90
34574;DHT22;20809;49.594;8.734;2022-08-20T06:19:10;21.80;99.90
34574;DHT22;20809;49.594;8.734;2022-08-20T06:22:13;21.90;99.90
34574;DHT22;20809;49.594;8.734;2022-08-20T06:25:14;22.00;99.90
34574;DHT22;20809;49.594;8.734;2022-08-20T06:28:16;22.00;99.90
34574;DHT22;20809;49.594;8.734;2022-08-20T06:31:17;21.90;99.90
34574;DHT22;20809;49.594;8.734;2022-08-20T06:34:18;21.90;99.90
34574;DHT22;20809;49.594;8.734;2022-08-20T06:37:24;22.00;99.90
34574;DHT22;20809;49.594;8.734;2022-08-20T06:40:27;21.90;99.90
34574;DHT22;20809;49.594;8.734;2022-08-20T06:43:28;22.00;99.90
34574;DHT22;20809;49.594;8.734;2022-08-20T06:46:29;22.00;99.90
34574;DHT22;20809;49.594;8.734;2022-08-20T06:49:33;21.90;99.90
34574;DHT22;20809;49.594;8.734;2022-08-20T06:52:33;22.00;99.90
34574;DHT22;20809;49.594;8.734;2022-08-20T06:55:36;21.60;99.90
34574;DHT22;20809;49.594;8.734;2022-08-20T06:58:38;21.00;99.90
34574;DHT22;20809;49.594;8.734;2022-08-20T07:01:39;20.50;99.90
34574;DHT22;20809;49.594;8.734;2022-08-20T07:04:40;20.20;99.90
34574;DHT22;20809;49.594;8.734;2022-08-20T07:07:44;19.90;99.90
34574;DHT22;20809;49.594;8.734;2022-08-20T07:10:46;19.70;99.90
34574;DHT22;20809;49.594;8.734;2022-08-20T07:13:47;19.60;99.90
34574;DHT22;20809;49.594;8.734;2022-08-20T07:16:48;19.50;99.90
34574;DHT22;20809;49.594;8.734;2022-08-20T07:19:49;19.60;99.90
34574;DHT22;20809;49.594;8.734;2022-08-20T07:22:50;19.60;99.90
34574;DHT22;20809;49.594;8.734;2022-08-20T07:25:52;19.70;99.90
34574;DHT22;20809;49.594;8.734;2022-08-20T07:28:53;19.80;99.90
34574;DHT22;20809;49.594;8.734;2022-08-20T07:31:54;20.00;99.90
34574;DHT22;20809;49.594;8.734;2022-08-20T07:35:15;20.30;99.90
34574;DHT22;20809;49.594;8.734;2022-08-20T07:38:19;20.90;99.90
34574;DHT22;20809;49.594;8.734;2022-08-20T07:41:23;21.60;99.90
34574;DHT22;20809;49.594;8.734;2022-08-20T07:44:24;22.20;99.90
34574;DHT22;20809;49.594;8.734;2022-08-20T07:47:25;22.80;99.90
34574;DHT22;20809;49.594;8.734;2022-08-20T07:50:26;23.20;99.90
34574;DHT22;20809;49.594;8.734;2022-08-20T07:53:27;23.50;99.90
34574;DHT22;20809;49.594;8.734;2022-08-20T07:56:27;23.60;99.90
34574;DHT22;20809;49.594;8.734;2022-08-20T07:59:29;23.50;99.90
34574;DHT22;20809;49.594;8.734;2022-08-20T08:02:30;23.10;99.90
34574;DHT22;20809;49.594;8.734;2022-08-20T08:05:34;22.80;99.90
34574;DHT22;20809;49.594;8.734;2022-08-20T08:08:36;22.80;99.90
34574;DHT22;20809;49.594;8.734;2022-08-20T08:11:40;23.00;99.90
34574;DHT22;20809;49.594;8.734;2022-08-20T08:14:42;23.50;99.90
34574;DHT22;20809;49.594;8.734;2022-08-20T08:17:45;23.90;99.90
34574;DHT22;20809;49.594;8.734;2022-08-20T08:20:47;24.20;99.90
34574;DHT22;20809;49.594;8.734;2022-08-20T08:23:50;24.40;99.90
34574;DHT22;20809;49.594;8.734;2022-08-20T08:26:52;24.60;99.90
34574;DHT22;20809;49.594;8.734;2022-08-20T08:29:53;24.80;99.90
34574;DHT22;20809;49.594;8.734;2022-08-20T08:32:54;24.90;99.90
34574;DHT22;20809;49.594;8.734;2022-08-20T08:36:14;25.10;99.90
34574;DHT22;20809;49.594;8.734;2022-08-20T08:39:15;25.40;99.90
34574;DHT22;20809;49.594;8.734;2022-08-20T08:42:39;25.60;99.90
34574;DHT22;20809;49.594;8.734;2022-08-20T08:45:44;26.40;99.90
34574;DHT22;20809;49.594;8.734;2022-08-20T08:48:49;27.20;99.90
34574;DHT22;20809;49.594;8.734;2022-08-20T08:52:00;27.70;99.90
34574;DHT22;20809;49.594;8.734;2022-08-20T08:55:06;27.30;99.90
34574;DHT22;20809;49.594;8.734;2022-08-20T08:58:09;26.10;99.90
34574;DHT22;20809;49.594;8.734;2022-08-20T09:01:13;25.40;99.90
34574;DHT22;20809;49.594;8.734;2022-08-20T09:04:15;24.80;99.90
34574;DHT22;20809;49.594;8.734;2022-08-20T09:07:17;24.50;99.90
34574;DHT22;20809;49.594;8.734;2022-08-20T09:10:18;24.50;99.90
34574;DHT22;20809;49.594;8.734;2022-08-20T09:13:19;24.60;99.90
34574;DHT22;20809;49.594;8.734;2022-08-20T09:16:21;24.70;99.90
34574;DHT22;20809;49.594;8.734;2022-08-20T09:19:22;24.70;99.90
34574;DHT22;20809;49.594;8.734;2022-08-20T09:22:23;24.80;99.90
34574;DHT22;20809;49.594;8.734;2022-08-20T09:25:27;25.00;99.90
34574;DHT22;20809;49.594;8.734;2022-08-20T09:28:27;24.80;99.90
34574;DHT22;20809;49.594;8.734;2022-08-20T09:31:28;24.60;99.90
34574;DHT22;20809;49.594;8.734;2022-08-20T09:34:29;24.60;99.90
34574;DHT22;20809;49.594;8.734;2022-08-20T09:37:31;25.00;99.90
34574;DHT22;20809;49.594;8.734;2022-08-20T09:40:32;25.60;99.90
34574;DHT22;20809;49.594;8.734;2022-08-20T09:43:33;26.00;99.90
34574;DHT22;20809;49.594;8.734;2022-08-20T09:46:34;26.00;99.90
34574;DHT22;20809;49.594;8.734;2022-08-20T09:49:35;25.70;99.90
34574;DHT22;20809;49.594;8.734;2022-08-20T09:52:46;25.30;99.90
34574;DHT22;20809;49.594;8.734;2022-08-20T09:55:51;24.80;99.90
34574;DHT22;20809;49.594;8.734;2022-08-20T09:58:53;24.40;99.90
34574;DHT22;20809;49.594;8.734;2022-08-20T10:01:54;24.20;99.90
34574;DHT22;20809;49.594;8.734;2022-08-20T10:04:55;23.80;99.90
34574;DHT22;20809;49.594;8.734;2022-08-20T10:07:56;23.10;99.90
34574;DHT22;20809;49.594;8.734;2022-08-20T10:10:57;22.30;99.90
34574;DHT22;20809;49.594;8.734;2022-08-20T10:13:58;21.70;99.90
34574;DHT22;20809;49.594;8.734;2022-08-20T10:17:00;21.50;99.90
34574;DHT22;20809;49.594;8.734;2022-08-20T10:20:01;21.50;99.90
34574;DHT22;20809;49.594;8.734;2022-08-20T10:23:03;21.50;99.90
34574;DHT22;20809;49.594;8.734;2022-08-20T10:26:05;21.60;99.90
34574;DHT22;20809;49.594;8.734;2022-08-20T10:29:06;21.70;99.90
34574;DHT22;20809;49.594;8.734;2022-08-20T10:32:10;21.70;99.90
34574;DHT22;20809;49.594;8.734;2022-08-20T10:35:11;21.80;99.90
34574;DHT22;20809;49.594;8.734;2022-08-20T10:38:12;21.90;99.90
34574;DHT22;20809;49.594;8.734;2022-08-20T10:41:13;22.10;99.90
34574;DHT22;20809;49.594;8.734;2022-08-20T10:44:14;22.50;99.90
34574;DHT22;20809;49.594;8.734;2022-08-20T10:50:22;23.00;99.90
34574;DHT22;20809;49.594;8.734;2022-08-20T10:53:23;23.00;99.90
34574;DHT22;20809;49.594;8.734;2022-08-20T10:56:23;23.30;99.90
34574;DHT22;20809;49.594;8.734;2022-08-20T10:59:24;23.70;99.90
34574;DHT22;20809;49.594;8.734;2022-08-20T11:02:26;24.20;99.90
34574;DHT22;20809;49.594;8.734;2022-08-20T11:05:27;24.70;99.90
34574;DHT22;20809;49.594;8.734;2022-08-20T11:08:28;24.90;99.90
34574;DHT22;20809;49.594;8.734;2022-08-20T11:11:28;24.90;99.90
34574;DHT22;20809;49.594;8.734;2022-08-20T11:14:29;25.10;99.90
34574;DHT22;20809;49.594;8.734;2022-08-20T11:17:32;25.20;99.90
34574;DHT22;20809;49.594;8.734;2022-08-20T11:20:34;25.50;99.90
34574;DHT22;20809;49.594;8.734;2022-08-20T11:23:35;25.60;99.90
34574;DHT22;20809;49.594;8.734;2022-08-20T11:26:36;26.20;99.90
34574;DHT22;20809;49.594;8.734;2022-08-20T11:29:37;26.90;99.90
34574;DHT22;20809;49.594;8.734;2022-08-20T11:32:38;27.20;99.90
34574;DHT22;20809;49.594;8.734;2022-08-20T11:35:38;27.70;99.90
34574;DHT22;20809;49.594;8.734;2022-08-20T11:38:39;27.80;99.90
34574;DHT22;20809;49.594;8.734;2022-08-20T11:41:40;27.60;99.90
34574;DHT22;20809;49.594;8.734;2022-08-20T11:44:40;27.60;99.90
34574;DHT22;20809;49.594;8.734;2022-08-20T11:47:41;27.60;99.90
34574;DHT22;20809;49.594;8.734;2022-08-20T11:50:42;27.70;99.90
34574;DHT22;20809;49.594;8.734;2022-08-20T11:53:43;27.70;99.90
34574;DHT22;20809;49.594;8.734;2022-08-20T11:56:43;27.80;99.90
34574;DHT22;20809;49.594;8.734;2022-08-20T11:59:51;27.90;99.90
34574;DHT22;20809;49.594;8.734;2022-08-20T12:02:52;28.30;99.90
34574;DHT22;20809;49.594;8.734;2022-08-20T12:05:53;28.50;99.90
34574;DHT22;20809;49.594;8.734;2022-08-20T12:08:56;28.60;99.90
34574;DHT22;20809;49.594;8.734;2022-08-20T12:11:57;28.50;99.90
34574;DHT22;20809;49.594;8.734;2022-08-20T12:14:57;28.90;99.90
34574;DHT22;20809;49.594;8.734;2022-08-20T12:17:58;28.80;99.90
34574;DHT22;20809;49.594;8.734;2022-08-20T12:21:00;28.40;99.90
34574;DHT22;20809;49.594;8.734;2022-08-20T12:24:01;28.50;99.90
34574;DHT22;20809;49.594;8.734;2022-08-20T12:27:23;28.80;99.90
34574;DHT22;20809;49.594;8.734;2022-08-20T12:30:24;28.70;99.90
34574;DHT22;20809;49.594;8.734;2022-08-20T12:33:25;28.90;99.90
34574;DHT22;20809;49.594;8.734;2022-08-20T12:36:25;29.00;99.90
34574;DHT22;20809;49.594;8.734;2022-08-20T12:39:26;29.20;99.90
34574;DHT22;20809;49.594;8.734;2022-08-20T12:42:30;28.80;99.90
34574;DHT22;20809;49.594;8.734;2022-08-20T12:45:31;28.70;99.90
34574;DHT22;20809;49.594;8.734;2022-08-20T12:48:32;28.60;99.90
34574;DHT22;20809;49.594;8.734;2022-08-20T12:51:33;28.70;99.90
34574;DHT22;20809;49.594;8.734;2022-08-20T12:54:34;28.80;99.90
34574;DHT22;20809;49.594;8.734;2022-08-20T12:57:41;28.80;99.90
34574;DHT22;20809;49.594;8.734;2022-08-20T13:00:44;29.00;99.90
34574;DHT22;20809;49.594;8.734;2022-08-20T13:03:47;28.70;99.90
34574;DHT22;20809;49.594;8.734;2022-08-20T13:06:47;28.80;99.90
34574;DHT22;20809;49.594;8.734;2022-08-20T13:09:48;29.40;99.90
34574;DHT22;20809;49.594;8.734;2022-08-20T13:12:49;30.00;99.90
34574;DHT22;20809;49.594;8.734;2022-08-20T13:15:50;30.20;99.90
34574;DHT22;20809;49.594;8.734;2022-08-20T13:18:51;30.20;99.90
34574;DHT22;20809;49.594;8.734;2022-08-20T13:21:52;29.90;99.90
34574;DHT22;20809;49.594;8.734;2022-08-20T13:24:53;29.60;99.90
34574;DHT22;20809;49.594;8.734;2022-08-20T13:27:55;29.00;99.90
34574;DHT22;20809;49.594;8.734;2022-08-20T13:30:57;28.60;99.90
34574;DHT22;20809;49.594;8.734;2022-08-20T13:33:57;28.30;99.90
34574;DHT22;20809;49.594;8.734;2022-08-20T13:36:58;28.20;98.60
34574;DHT22;20809;49.594;8.734;2022-08-20T13:39:59;28.30;98.50
34574;DHT22;20809;49.594;8.734;2022-08-20T13:43:00;28.70;98.30
34574;DHT22;20809;49.594;8.734;2022-08-20T13:46:01;28.60;97.40
34574;DHT22;20809;49.594;8.734;2022-08-20T13:49:01;28.40;97.50
34574;DHT22;20809;49.594;8.734;2022-08-20T13:52:02;28.20;96.30
34574;DHT22;20809;49.594;8.734;2022-08-20T13:55:04;28.10;96.30
34574;DHT22;20809;49.594;8.734;2022-08-20T13:58:06;27.90;95.20
34574;DHT22;20809;49.594;8.734;2022-08-20T14:01:07;28.10;91.90
34574;DHT22;20809;49.594;8.734;2022-08-20T14:04:08;28.20;89.90
34574;DHT22;20809;49.594;8.734;2022-08-20T14:07:18;28.60;87.60
34574;DHT22;20809;49.594;8.734;2022-08-20T14:10:21;29.00;86.10
34574;DHT22;20809;49.594;8.734;2022-08-20T14:13:24;28.90;88.50
34574;DHT22;20809;49.594;8.734;2022-08-20T14:16:25;28.60;89.40
34574;DHT22;20809;49.594;8.734;2022-08-20T14:19:26;28.50;90.20
34574;DHT22;20809;49.594;8.734;2022-08-20T14:22:27;28.40;87.10
34574;DHT22;20809;49.594;8.734;2022-08-20T14:25:28;28.20;87.00
34574;DHT22;20809;49.594;8.734;2022-08-20T14:28:30;27.90;87.80
34574;DHT22;20809;49.594;8.734;2022-08-20T14:31:30;27.70;86.70
34574;DHT22;20809;49.594;8.734;2022-08-20T14:34:32;28.10;84.20
34574;DHT22;20809;49.594;8.734;2022-08-20T14:37:36;28.50;84.30
34574;DHT22;20809;49.594;8.734;2022-08-20T14:40:37;29.00;82.20
34574;DHT22;20809;49.594;8.734;2022-08-20T14:43:38;29.50;82.10
34574;DHT22;20809;49.594;8.734;2022-08-20T14:46:38;30.00;74.20
34574;DHT22;20809;49.594;8.734;2022-08-20T14:49:39;30.20;72.70
34574;DHT22;20809;49.594;8.734;2022-08-20T14:52:40;30.50;71.60
34574;DHT22;20809;49.594;8.734;2022-08-20T14:55:41;30.80;69.40
34574;DHT22;20809;49.594;8.734;2022-08-20T14:58:41;31.00;68.30
34574;DHT22;20809;49.594;8.734;2022-08-20T15:01:42;31.10;67.80
34574;DHT22;20809;49.594;8.734;2022-08-20T15:04:44;31.10;66.90
34574;DHT22;20809;49.594;8.734;2022-08-20T15:07:47;31.00;64.30
34574;DHT22;20809;49.594;8.734;2022-08-20T15:10:48;30.80;67.90
34574;DHT22;20809;49.594;8.734;2022-08-20T15:13:49;30.90;64.50
34574;DHT22;20809;49.594;8.734;2022-08-20T15:16:50;31.00;65.70
34574;DHT22;20809;49.594;8.734;2022-08-20T15:19:51;31.00;64.40
34574;DHT22;20809;49.594;8.734;2022-08-20T15:22:53;31.10;64.30
34574;DHT22;20809;49.594;8.734;2022-08-20T15:25:54;31.10;62.80
34574;DHT22;20809;49.594;8.734;2022-08-20T15:28:55;31.10;61.40
34574;DHT22;20809;49.594;8.734;2022-08-20T15:31:56;31.00;60.40
34574;DHT22;20809;49.594;8.734;2022-08-20T15:34:56;31.00;61.60
34574;DHT22;20809;49.594;8.734;2022-08-20T15:37:58;31.10;59.70
34574;DHT22;20809;49.594;8.734;2022-08-20T15:40:59;31.00;60.20
34574;DHT22;20809;49.594;8.734;2022-08-20T15:44:03;31.20;61.00
34574;DHT22;20809;49.594;8.734;2022-08-20T15:47:21;31.20;59.30
34574;DHT22;20809;49.594;8.734;2022-08-20T15:54:13;31.50;58.60
34574;DHT22;20809;49.594;8.734;2022-08-20T16:01:02;31.10;57.50
34574;DHT22;20809;49.594;8.734;2022-08-20T16:07:38;30.80;57.40
34574;DHT22;20809;49.594;8.734;2022-08-20T16:10:56;30.90;59.50
34574;DHT22;20809;49.594;8.734;2022-08-20T16:17:14;30.50;55.70
34574;DHT22;20809;49.594;8.734;2022-08-20T16:20:23;30.40;57.80
34574;DHT22;20809;49.594;8.734;2022-08-20T16:23:30;30.20;56.20
34574;DHT22;20809;49.594;8.734;2022-08-20T16:33:49;30.20;54.10
34574;DHT22;20809;49.594;8.734;2022-08-20T16:40:42;30.30;52.00
34574;DHT22;20809;49.594;8.734;2022-08-20T16:43:52;30.40;52.00
34574;DHT22;20809;49.594;8.734;2022-08-20T16:47:04;30.50;51.00
34574;DHT22;20809;49.594;8.734;2022-08-20T16:50:16;30.90;52.00
34574;DHT22;20809;49.594;8.734;2022-08-20T16:53:21;31.30;49.80
34574;DHT22;20809;49.594;8.734;2022-08-20T16:56:44;31.50;50.10
34574;DHT22;20809;49.594;8.734;2022-08-20T17:00:05;31.90;48.90
34574;DHT22;20809;49.594;8.734;2022-08-20T17:03:36;32.20;48.20
34574;DHT22;20809;49.594;8.734;2022-08-20T17:06:42;32.80;47.40
34574;DHT22;20809;49.594;8.734;2022-08-20T17:09:43;33.20;47.00
34574;DHT22;20809;49.594;8.734;2022-08-20T17:12:44;33.40;45.70
34574;DHT22;20809;49.594;8.734;2022-08-20T17:16:03;33.70;45.50
34574;DHT22;20809;49.594;8.734;2022-08-20T17:19:18;33.90;44.50
34574;DHT22;20809;49.594;8.734;2022-08-20T17:22:19;34.00;44.20
34574;DHT22;20809;49.594;8.734;2022-08-20T17:25:30;33.80;43.90
34574;DHT22;20809;49.594;8.734;2022-08-20T17:28:31;33.80;44.70
34574;DHT22;20809;49.594;8.734;2022-08-20T17:31:44;34.00;44.90
34574;DHT22;20809;49.594;8.734;2022-08-20T17:34:51;34.10;44.30
34574;DHT22;20809;49.594;8.734;2022-08-20T17:37:52;33.40;44.90
34574;DHT22;20809;49.594;8.734;2022-08-20T17:41:02;32.00;46.00
34574;DHT22;20809;49.594;8.734;2022-08-20T17:44:23;30.50;46.90
34574;DHT22;20809;49.594;8.734;2022-08-20T17:47:31;29.30;48.20
34574;DHT22;20809;49.594;8.734;2022-08-20T17:50:40;28.40;49.30
34574;DHT22;20809;49.594;8.734;2022-08-20T17:53:42;27.80;51.10
34574;DHT22;20809;49.594;8.734;2022-08-20T17:56:43;27.30;52.00
34574;DHT22;20809;49.594;8.734;2022-08-20T17:59:48;27.00;53.70
34574;DHT22;20809;49.594;8.734;2022-08-20T18:02:59;26.60;56.00
34574;DHT22;20809;49.594;8.734;2022-08-20T18:06:10;26.40;56.80
34574;DHT22;20809;49.594;8.734;2022-08-20T18:13:07;25.80;62.70
34574;DHT22;20809;49.594;8.734;2022-08-20T18:16:15;25.60;64.20
34574;DHT22;20809;49.594;8.734;2022-08-20T18:29:35;24.80;68.60
34574;DHT22;20809;49.594;8.734;2022-08-20T18:32:38;24.70;69.20
34574;DHT22;20809;49.594;8.734;2022-08-20T18:35:41;24.50;70.10
34574;DHT22;20809;49.594;8.734;2022-08-20T18:39:23;24.50;70.60
34574;DHT22;20809;49.594;8.734;2022-08-20T18:42:25;24.30;71.10
34574;DHT22;20809;49.594;8.734;2022-08-20T18:45:33;24.30;71.90
34574;DHT22;20809;49.594;8.734;2022-08-20T18:48:34;24.20;72.30
34574;DHT22;20809;49.594;8.734;2022-08-20T18:51:49;24.00;72.80
34574;DHT22;20809;49.594;8.734;2022-08-20T18:54:52;23.90;73.40
34574;DHT22;20809;49.594;8.734;2022-08-20T18:58:14;23.80;74.10
34574;DHT22;20809;49.594;8.734;2022-08-20T19:01:15;23.70;74.80
34574;DHT22;20809;49.594;8.734;2022-08-20T19:04:28;23.40;76.20
34574;DHT22;20809;49.594;8.734;2022-08-20T19:07:42;23.20;77.30
34574;DHT22;20809;49.594;8.734;2022-08-20T19:11:02;22.90;77.90
34574;DHT22;20809;49.594;8.734;2022-08-20T19:17:19;22.60;78.90
34574;DHT22;20809;49.594;8.734;2022-08-20T19:20:26;22.40;79.40
34574;DHT22;20809;49.594;8.734;2022-08-20T19:23:30;22.20;80.50
34574;DHT22;20809;49.594;8.734;2022-08-20T19:26:39;22.10;81.50
34574;DHT22;20809;49.594;8.734;2022-08-20T19:29:47;22.00;82.20
34574;DHT22;20809;49.594;8.734;2022-08-20T19:32:51;21.80;83.80
34574;DHT22;20809;49.594;8.734;2022-08-20T19:35:52;21.70;84.60
34574;DHT22;20809;49.594;8.734;2022-08-20T19:39:00;21.60;85.90
34574;DHT22;20809;49.594;8.734;2022-08-20T19:42:13;21.50;87.20
34574;DHT22;20809;49.594;8.734;2022-08-20T19:48:59;21.20;88.30
34574;DHT22;20809;49.594;8.734;2022-08-20T19:52:21;21.10;89.20
34574;DHT22;20809;49.594;8.734;2022-08-20T19:55:28;21.00;90.20
34574;DHT22;20809;49.594;8.734;2022-08-20T19:58:30;20.90;90.70
34574;DHT22;20809;49.594;8.734;2022-08-20T20:01:32;20.90;90.70
34574;DHT22;20809;49.594;8.734;2022-08-20T20:04:41;20.80;91.00
34574;DHT22;20809;49.594;8.734;2022-08-20T20:07:51;20.80;91.50
34574;DHT22;20809;49.594;8.734;2022-08-20T20:10:58;20.60;91.80
34574;DHT22;20809;49.594;8.734;2022-08-20T20:14:02;20.50;91.90
34574;DHT22;20809;49.594;8.734;2022-08-20T20:17:05;20.50;92.40